createdAt,value
2022-12-27T00:02:12.853Z,99478.81
2022-12-27T00:06:19.684Z,99476.38
2022-12-27T00:10:22.451Z,99476.72
2022-12-27T00:14:24.605Z,99470.97
2022-12-27T00:18:26.731Z,99470.44
2022-12-27T00:22:28.847Z,99480.69
2022-12-27T00:26:33.448Z,99487.63
2022-12-27T00:30:35.570Z,99488.94
2022-12-27T00:34:38.258Z,99490.78
2022-12-27T00:38:40.679Z,99504.06
2022-12-27T00:42:42.837Z,99516.91
2022-12-27T00:46:44.948Z,99510.28
2022-12-27T00:50:47.599Z,99506.00
2022-12-27T00:54:49.661Z,99504.78
2022-12-27T00:59:01.077Z,99513.97
2022-12-27T01:03:04.057Z,99520.22
2022-12-27T01:07:06.208Z,99519.06
2022-12-27T01:11:10.109Z,99514.09
2022-12-27T01:15:12.981Z,99521.28
2022-12-27T01:19:15.095Z,99511.63
2022-12-27T01:23:17.154Z,99502.72
2022-12-27T01:27:19.315Z,99512.59
2022-12-27T01:31:24.937Z,99514.59
2022-12-27T01:35:27.114Z,99523.50
2022-12-27T01:39:29.237Z,99511.38
2022-12-27T01:43:38.853Z,99505.06
2022-12-27T01:48:03.752Z,99514.59
2022-12-27T01:52:07.737Z,99506.16
2022-12-27T01:56:13.902Z,99506.22
2022-12-27T02:00:16.762Z,99512.69
2022-12-27T02:04:23.229Z,99512.69
2022-12-27T02:08:46.754Z,99507.13
2022-12-27T02:12:48.857Z,99508.50
2022-12-27T02:16:52.765Z,99502.13
2022-12-27T02:21:07.336Z,99504.28
2022-12-27T02:25:25.999Z,99499.44
2022-12-27T02:29:53.066Z,99505.50
2022-12-27T02:33:58.517Z,99493.44
2022-12-27T02:38:07.643Z,99487.22
2022-12-27T02:42:29.849Z,99492.03
2022-12-27T02:46:52.032Z,99481.88
2022-12-27T02:51:18.828Z,99483.50
2022-12-27T02:55:34.333Z,99472.94
2022-12-27T03:00:16.485Z,99455.94
2022-12-27T03:04:18.818Z,99462.69
2022-12-27T03:08:35.586Z,99458.97
2022-12-27T03:13:02.301Z,99456.00
2022-12-27T03:17:27.051Z,99455.44
2022-12-27T03:21:59.597Z,99460.63
2022-12-27T03:26:05.796Z,99452.94
2022-12-27T03:30:28.415Z,99462.00
2022-12-27T03:34:47.527Z,99459.28
2022-12-27T03:39:05.700Z,99471.13
2022-12-27T03:43:16.777Z,99464.59
2022-12-27T03:47:43.051Z,99451.13
2022-12-27T03:51:51.759Z,99459.19
2022-12-27T03:55:54.069Z,99440.13
2022-12-27T03:59:56.322Z,99450.13
2022-12-27T04:04:00.466Z,99451.09
2022-12-27T04:08:21.879Z,99452.97
2022-12-27T04:12:42.516Z,99448.16
2022-12-27T04:17:03.124Z,99456.88
2022-12-27T04:21:23.961Z,99460.72
2022-12-27T04:25:44.537Z,99449.44
2022-12-27T04:30:06.313Z,99451.09
2022-12-27T04:34:27.435Z,99436.75
2022-12-27T04:38:29.609Z,99445.84
2022-12-27T04:42:50.577Z,99451.34
2022-12-27T04:47:12.804Z,99448.69
2022-12-27T04:51:34.231Z,99463.19
2022-12-27T04:55:36.595Z,99462.44
2022-12-27T04:59:57.395Z,99461.97
2022-12-27T05:04:00.182Z,99460.84
2022-12-27T05:08:22.055Z,99455.41
2022-12-27T05:12:42.648Z,99458.72
2022-12-27T05:16:44.839Z,99464.16
2022-12-27T05:20:46.911Z,99464.63
2022-12-27T05:25:07.688Z,99459.09
2022-12-27T05:29:10.100Z,99467.84
2022-12-27T05:33:12.501Z,99476.41
2022-12-27T05:37:14.637Z,99467.50
2022-12-27T05:41:17.056Z,99473.53
2022-12-27T05:45:20.116Z,99476.78
2022-12-27T05:49:23.410Z,99471.09
2022-12-27T05:53:25.459Z,99477.91
2022-12-27T05:57:27.900Z,99484.16
2022-12-27T06:01:30.580Z,99480.91
2022-12-27T06:05:32.770Z,99489.94
2022-12-27T06:09:35.088Z,99486.31
2022-12-27T06:13:38.714Z,99487.81
2022-12-27T06:17:41.290Z,99485.47
2022-12-27T06:21:43.626Z,99482.78
2022-12-27T06:25:45.793Z,99477.28
2022-12-27T06:29:48.290Z,99475.34
2022-12-27T06:33:51.686Z,99469.66
2022-12-27T06:37:54.061Z,99476.16
2022-12-27T06:41:56.373Z,99493.03
2022-12-27T06:46:00.396Z,99507.94
2022-12-27T06:50:03.612Z,99503.41
2022-12-27T06:54:06.011Z,99501.88
2022-12-27T06:58:08.198Z,99507.81
2022-12-27T07:02:11.565Z,99516.16
2022-12-27T07:06:13.889Z,99507.22
2022-12-27T07:10:16.312Z,99516.84
2022-12-27T07:14:21.684Z,99527.25
2022-12-27T07:18:23.998Z,99527.47
2022-12-27T07:22:27.999Z,99530.03
2022-12-27T07:26:30.998Z,99539.06
2022-12-27T07:30:33.175Z,99542.28
2022-12-27T07:34:35.389Z,99553.75
2022-12-27T07:38:37.655Z,99550.84
2022-12-27T07:42:39.839Z,99562.56
2022-12-27T07:46:42.245Z,99565.88
2022-12-27T07:50:44.385Z,99571.56
2022-12-27T07:54:46.988Z,99573.66
2022-12-27T07:58:50.763Z,99573.75
2022-12-27T08:02:53.015Z,99576.72
2022-12-27T08:07:00.660Z,99580.91
2022-12-27T08:11:05.893Z,99584.59
2022-12-27T08:15:11.437Z,99576.16
2022-12-27T08:19:13.765Z,99581.09
2022-12-27T08:23:16.151Z,99578.88
2022-12-27T08:27:23.618Z,99583.00
2022-12-27T08:31:25.866Z,99579.19
2022-12-27T08:35:55.318Z,99592.38
2022-12-27T08:39:51.897Z,99600.91
2022-12-27T08:43:54.154Z,99606.97
2022-12-27T08:47:59.953Z,99620.34
2022-12-27T08:52:02.202Z,99607.31
2022-12-27T08:56:04.706Z,99630.38
2022-12-27T09:00:08.626Z,99620.84
2022-12-27T09:04:10.752Z,99623.75
2022-12-27T09:08:13.186Z,99644.22
2022-12-27T09:12:15.634Z,99649.56
2022-12-27T09:16:24.292Z,99644.22
2022-12-27T09:20:26.683Z,99645.88
2022-12-27T09:24:32.581Z,99639.06
2022-12-27T09:28:48.225Z,99644.09
2022-12-27T09:32:50.569Z,99647.25
2022-12-27T09:36:52.894Z,99634.16
2022-12-27T09:40:57.942Z,99629.84
2022-12-27T09:45:18.052Z,99630.03
2022-12-27T09:49:33.824Z,99625.59
2022-12-27T09:53:46.352Z,99625.75
2022-12-27T09:57:50.900Z,99622.06
2022-12-27T10:01:56.182Z,99611.63
2022-12-27T10:06:18.467Z,99618.44
2022-12-27T10:11:15.630Z,99614.97
2022-12-27T10:15:29.273Z,99606.56
2022-12-27T10:19:56.002Z,99605.56
2022-12-27T10:24:14.778Z,99595.59
2022-12-27T10:28:30.810Z,99595.38
2022-12-27T10:32:35.369Z,99598.31
2022-12-27T10:36:41.795Z,99593.22
2022-12-27T10:41:25.776Z,99589.06
2022-12-27T10:45:42.874Z,99586.09
2022-12-27T10:50:10.038Z,99584.06
2022-12-27T10:54:18.686Z,99574.19
2022-12-27T10:58:56.486Z,99577.13
2022-12-27T11:03:08.573Z,99572.56
2022-12-27T11:07:18.865Z,99562.66
2022-12-27T11:11:27.965Z,99558.91
2022-12-27T11:15:48.351Z,99562.38
2022-12-27T11:20:03.658Z,99535.28
2022-12-27T11:24:19.007Z,99531.25
2022-12-27T11:28:39.217Z,99525.59
2022-12-27T11:32:49.858Z,99523.72
2022-12-27T11:37:09.245Z,99514.88
2022-12-27T11:41:50.391Z,99517.56
2022-12-27T11:46:02.797Z,99510.59
2022-12-27T11:50:45.632Z,99506.00
2022-12-27T11:55:34.034Z,99500.41
2022-12-27T11:59:57.938Z,99498.50
2022-12-27T12:04:29.880Z,99496.34
2022-12-27T12:08:47.680Z,99495.50
2022-12-27T12:13:03.827Z,99499.00
2022-12-27T12:17:50.641Z,99495.41
2022-12-27T12:22:41.977Z,99492.81
2022-12-27T12:27:09.146Z,99478.41
2022-12-27T12:31:45.587Z,99481.09
2022-12-27T12:36:07.340Z,99475.97
2022-12-27T12:40:41.272Z,99477.53
2022-12-27T12:45:25.052Z,99469.66
2022-12-27T12:49:55.889Z,99473.97
2022-12-27T12:54:42.611Z,99469.22
2022-12-27T12:59:39.385Z,99468.44
2022-12-27T13:04:10.176Z,99461.22
2022-12-27T13:08:52.601Z,99453.44
2022-12-27T13:13:15.711Z,99450.22
2022-12-27T13:17:33.194Z,99454.72
2022-12-27T13:22:25.991Z,99453.38
2022-12-27T13:27:23.647Z,99451.16
2022-12-27T13:32:05.330Z,99453.50
2022-12-27T13:36:33.717Z,99446.72
2022-12-27T13:41:28.078Z,99440.78
2022-12-27T13:45:56.569Z,99443.66
2022-12-27T13:50:47.886Z,99429.13
2022-12-27T13:55:25.739Z,99430.25
2022-12-27T14:00:01.894Z,99428.25
2022-12-27T14:04:59.510Z,99421.91
2022-12-27T14:09:51.716Z,99419.72
2022-12-27T14:14:03.587Z,99414.88
2022-12-27T14:18:59.663Z,99420.28
2022-12-27T14:23:35.088Z,99419.25
2022-12-27T14:28:11.487Z,99427.28
2022-12-27T14:32:33.159Z,99430.50
2022-12-27T14:37:19.384Z,99423.28
2022-12-27T14:41:44.413Z,99421.66
2022-12-27T14:46:19.684Z,99433.25
2022-12-27T14:50:45.404Z,99438.91
2022-12-27T14:55:16.246Z,99435.94
2022-12-27T14:59:49.944Z,99433.00
2022-12-27T15:04:08.124Z,99431.41
2022-12-27T15:08:30.874Z,99432.78
2022-12-27T15:12:56.986Z,99434.38
2022-12-27T15:17:11.497Z,99430.66
2022-12-27T15:21:30.978Z,99434.94
2022-12-27T15:25:56.373Z,99425.84
2022-12-27T15:30:08.077Z,99430.13
2022-12-27T15:34:41.131Z,99429.31
2022-12-27T15:38:54.931Z,99443.00
2022-12-27T15:43:20.853Z,99439.22
2022-12-27T15:48:20.848Z,99445.38
2022-12-27T15:52:34.720Z,99449.94
2022-12-27T15:57:20.912Z,99443.44
2022-12-27T16:01:29.766Z,99447.13
2022-12-27T16:05:47.695Z,99442.56
2022-12-27T16:09:50.427Z,99442.81
2022-12-27T16:14:23.352Z,99440.31
2022-12-27T16:18:46.001Z,99444.91
2022-12-27T16:22:53.684Z,99452.31
2022-12-27T16:27:05.665Z,99448.22
2022-12-27T16:31:12.644Z,99455.94
2022-12-27T16:35:16.500Z,99470.22
2022-12-27T16:39:24.851Z,99467.66
2022-12-27T16:43:46.949Z,99457.28
2022-12-27T16:48:34.084Z,99473.59
2022-12-27T16:53:02.124Z,99467.78
2022-12-27T16:57:29.195Z,99470.28
2022-12-27T17:01:35.671Z,99466.84
2022-12-27T17:05:44.825Z,99465.56
2022-12-27T17:09:55.869Z,99458.84
2022-12-27T17:14:03.624Z,99467.72
2022-12-27T17:18:33.069Z,99464.59
2022-12-27T17:22:39.550Z,99467.69
2022-12-27T17:27:03.613Z,99471.31
2022-12-27T17:31:30.735Z,99489.09
2022-12-27T17:35:48.022Z,99484.91
2022-12-27T17:40:05.536Z,99503.06
2022-12-27T17:44:39.631Z,99506.34
2022-12-27T17:48:42.704Z,99489.34
2022-12-27T17:53:31.634Z,99500.88
2022-12-27T17:57:52.329Z,99514.81
2022-12-27T18:02:13.469Z,99525.25
2022-12-27T18:06:19.933Z,99526.16
2022-12-27T18:10:25.914Z,99516.59
2022-12-27T18:14:31.520Z,99511.91
2022-12-27T18:23:27.950Z,99517.66
2022-12-27T18:27:32.971Z,99525.72
2022-12-27T18:31:49.901Z,99518.03
2022-12-27T18:35:52.467Z,99513.06
2022-12-27T18:40:00.361Z,99506.41
2022-12-27T18:44:02.966Z,99512.31
2022-12-27T18:48:12.199Z,99512.88
2022-12-27T18:52:22.387Z,99504.63
2022-12-27T18:56:33.100Z,99504.41
2022-12-27T19:00:59.168Z,99503.44
2022-12-27T19:05:13.761Z,99500.22
2022-12-27T19:09:18.390Z,99503.59
2022-12-27T19:13:28.259Z,99502.28
2022-12-27T19:17:32.420Z,99505.88
2022-12-27T19:21:37.354Z,99511.50
2022-12-27T19:25:41.172Z,99508.97
2022-12-27T19:29:51.692Z,99508.53
2022-12-27T19:34:16.323Z,99520.97
2022-12-27T19:38:24.427Z,99510.88
2022-12-27T19:42:33.787Z,99513.41
2022-12-27T19:46:36.546Z,99517.78
2022-12-27T19:50:47.994Z,99523.28
2022-12-27T19:54:57.162Z,99522.25
2022-12-27T19:59:00.339Z,99530.47
2022-12-27T20:03:05.356Z,99531.28
2022-12-27T20:07:14.002Z,99530.34
2022-12-27T20:11:25.594Z,99535.63
2022-12-27T20:15:31.444Z,99530.97
2022-12-27T20:19:33.737Z,99530.03
2022-12-27T20:23:37.853Z,99538.09
2022-12-27T20:27:40.913Z,99540.69
2022-12-27T20:31:49.287Z,99526.50
2022-12-27T20:35:57.708Z,99529.59
2022-12-27T20:40:05.001Z,99529.47
2022-12-27T20:44:07.610Z,99526.78
2022-12-27T20:48:11.364Z,99531.31
2022-12-27T20:52:15.498Z,99521.84
2022-12-27T20:56:23.555Z,99513.94
2022-12-27T21:00:28.229Z,99535.00
2022-12-27T21:04:30.573Z,99529.84
2022-12-27T21:08:36.148Z,99536.09
2022-12-27T21:12:44.371Z,99541.50
2022-12-27T21:16:46.711Z,99541.06
2022-12-27T21:20:48.865Z,99541.56
2022-12-27T21:24:51.179Z,99550.00
2022-12-27T21:28:54.490Z,99555.94
2022-12-27T21:32:56.972Z,99549.88
2022-12-27T21:37:01.448Z,99561.25
2022-12-27T21:41:08.242Z,99566.72
2022-12-27T21:45:13.835Z,99568.44
2022-12-27T21:49:16.677Z,99567.22
2022-12-27T21:53:20.167Z,99574.38
2022-12-27T21:57:22.861Z,99578.22
2022-12-27T22:01:31.084Z,99571.34
2022-12-27T22:05:56.154Z,99574.28
2022-12-27T22:09:58.952Z,99566.41
2022-12-27T22:14:02.765Z,99562.34
2022-12-27T22:18:06.695Z,99565.81
2022-12-27T22:22:10.281Z,99569.19
2022-12-27T22:26:17.822Z,99575.50
2022-12-27T22:30:21.779Z,99553.81
2022-12-27T22:34:24.094Z,99550.09
2022-12-27T22:38:27.027Z,99555.31
2022-12-27T22:42:29.333Z,99556.66
2022-12-27T22:46:58.595Z,99560.22
2022-12-27T22:51:00.667Z,99564.72
2022-12-27T22:55:06.795Z,99564.88
2022-12-27T22:59:14.884Z,99546.13
2022-12-27T23:03:17.478Z,99558.84
2022-12-27T23:08:04.720Z,99553.31
2022-12-27T23:11:44.204Z,99554.09
2022-12-27T23:15:47.423Z,99550.97
2022-12-27T23:19:50.020Z,99552.84
2022-12-27T23:23:53.283Z,99547.28
2022-12-27T23:27:55.662Z,99545.09
2022-12-27T23:31:57.882Z,99544.38
2022-12-27T23:36:00.354Z,99535.75
2022-12-27T23:40:03.307Z,99526.25
2022-12-27T23:44:05.567Z,99533.41
2022-12-27T23:48:07.725Z,99526.22
2022-12-27T23:52:10.039Z,99521.94
2022-12-27T23:56:19.389Z,99519.41
